createdAt,value
2022-09-22T00:00:59.595Z,4.57
2022-09-22T00:04:22.564Z,4.60
2022-09-22T00:07:49.300Z,4.85
2022-09-22T00:11:17.102Z,5.07
2022-09-22T00:14:40.005Z,4.03
2022-09-22T00:18:02.860Z,4.72
2022-09-22T00:21:27.762Z,5.35
2022-09-22T00:24:52.780Z,5.18
2022-09-22T00:28:15.643Z,5.10
2022-09-22T00:31:40.279Z,4.30
2022-09-22T00:35:03.626Z,5.20
2022-09-22T00:38:26.668Z,4.20
2022-09-22T00:41:53.140Z,4.55
2022-09-22T00:45:16.141Z,5.10
2022-09-22T00:48:45.736Z,4.30
2022-09-22T00:52:09.364Z,5.20
2022-09-22T00:55:35.987Z,4.60
2022-09-22T00:59:03.101Z,3.90
2022-09-22T01:02:26.391Z,4.55
2022-09-22T01:05:53.307Z,4.28
2022-09-22T01:09:16.728Z,4.60
2022-09-22T01:12:49.997Z,3.70
2022-09-22T01:16:31.128Z,4.38
2022-09-22T01:20:27.590Z,4.30
2022-09-22T01:24:20.281Z,4.05
2022-09-22T01:28:15.292Z,3.92
2022-09-22T01:31:42.707Z,4.18
2022-09-22T01:35:12.812Z,3.85
2022-09-22T01:38:42.222Z,4.88
2022-09-22T01:42:11.388Z,5.07
2022-09-22T01:45:36.693Z,4.47
2022-09-22T01:49:06.354Z,3.92
2022-09-22T01:52:31.462Z,3.95
2022-09-22T01:55:59.668Z,4.22
2022-09-22T01:59:26.933Z,4.00
2022-09-22T02:02:55.076Z,3.53
2022-09-22T02:06:22.700Z,4.15
2022-09-22T02:09:47.268Z,4.15
2022-09-22T02:13:10.155Z,4.15
2022-09-22T02:16:33.738Z,4.30
2022-09-22T02:19:56.777Z,3.22
2022-09-22T02:23:21.112Z,4.85
2022-09-22T02:26:44.068Z,4.30
2022-09-22T02:30:10.307Z,3.60
2022-09-22T02:33:38.176Z,4.07
2022-09-22T02:37:08.055Z,4.72
2022-09-22T02:40:46.417Z,3.53
2022-09-22T02:44:15.880Z,3.97
2022-09-22T02:47:44.533Z,3.90
2022-09-22T02:51:08.210Z,4.10
2022-09-22T02:54:31.086Z,4.55
2022-09-22T02:57:55.469Z,4.43
2022-09-22T03:01:18.423Z,4.65
2022-09-22T03:04:41.412Z,5.10
2022-09-22T03:08:04.405Z,4.50
2022-09-22T03:11:28.078Z,4.22
2022-09-22T03:14:52.321Z,4.50
2022-09-22T03:18:15.305Z,4.80
2022-09-22T03:21:38.205Z,4.15
2022-09-22T03:25:01.067Z,4.10
2022-09-22T03:28:24.395Z,3.88
2022-09-22T03:31:49.069Z,4.18
2022-09-22T03:35:11.978Z,4.40
2022-09-22T03:38:34.864Z,4.25
2022-09-22T03:41:57.989Z,4.07
2022-09-22T03:45:20.914Z,4.43
2022-09-22T03:48:45.525Z,4.15
2022-09-22T03:52:08.498Z,4.93
2022-09-22T03:55:31.433Z,5.03
2022-09-22T03:58:54.452Z,4.13
2022-09-22T04:02:18.336Z,3.95
2022-09-22T04:05:50.206Z,3.65
2022-09-22T04:09:13.148Z,4.13
2022-09-22T04:12:37.193Z,3.53
2022-09-22T04:16:00.077Z,4.28
2022-09-22T04:19:22.984Z,3.40
2022-09-22T04:22:47.202Z,3.63
2022-09-22T04:26:10.143Z,4.45
2022-09-22T04:29:33.085Z,3.88
2022-09-22T04:32:55.930Z,3.75
2022-09-22T04:36:18.807Z,4.07
2022-09-22T04:39:43.052Z,3.63
2022-09-22T04:43:05.947Z,4.35
2022-09-22T04:46:28.929Z,4.50
2022-09-22T04:49:51.890Z,4.22
2022-09-22T04:53:14.765Z,3.83
2022-09-22T04:56:38.972Z,5.93
2022-09-22T05:00:02.029Z,5.60
2022-09-22T05:03:25.071Z,5.03
2022-09-22T05:06:48.007Z,6.10
2022-09-22T05:10:11.518Z,6.15
2022-09-22T05:13:35.756Z,4.90
2022-09-22T05:16:58.703Z,5.30
2022-09-22T05:20:22.679Z,5.80
2022-09-22T05:23:45.852Z,6.30
2022-09-22T05:27:09.053Z,5.57
2022-09-22T05:30:34.124Z,5.25
2022-09-22T05:33:57.346Z,6.75
2022-09-22T05:37:20.232Z,6.43
2022-09-22T05:40:46.792Z,4.75
2022-09-22T05:44:09.763Z,5.78
2022-09-22T05:47:34.900Z,6.03
2022-09-22T05:50:57.800Z,6.28
2022-09-22T05:54:23.315Z,5.28
2022-09-22T05:57:46.465Z,4.75
2022-09-22T06:01:09.413Z,4.90
2022-09-22T06:04:33.664Z,4.93
2022-09-22T06:08:00.698Z,5.78
2022-09-22T06:11:23.609Z,4.72
2022-09-22T06:14:46.838Z,5.13
2022-09-22T06:18:15.166Z,4.85
2022-09-22T06:21:39.852Z,6.03
2022-09-22T06:25:02.822Z,4.40
2022-09-22T06:28:25.735Z,4.57
2022-09-22T06:31:49.418Z,5.65
2022-09-22T06:35:12.363Z,4.72
2022-09-22T06:38:36.612Z,4.82
2022-09-22T06:42:01.044Z,4.13
2022-09-22T06:45:24.978Z,4.75
2022-09-22T06:48:51.421Z,4.43
2022-09-22T06:52:14.788Z,4.68
2022-09-22T06:55:41.407Z,4.55
2022-09-22T06:59:18.255Z,5.18
2022-09-22T07:02:41.284Z,5.43
2022-09-22T07:06:05.437Z,5.05
2022-09-22T07:09:28.367Z,5.90
2022-09-22T07:12:52.601Z,5.07
2022-09-22T07:16:17.620Z,4.70
2022-09-22T07:19:40.578Z,5.55
2022-09-22T07:23:03.421Z,4.53
2022-09-22T07:26:32.481Z,5.20
2022-09-22T07:29:57.499Z,4.28
2022-09-22T07:33:20.901Z,4.13
2022-09-22T07:36:44.088Z,4.45
2022-09-22T07:40:08.357Z,6.40
2022-09-22T07:43:31.348Z,5.75
2022-09-22T07:46:56.007Z,5.85
2022-09-22T07:50:18.969Z,5.82
2022-09-22T07:53:42.181Z,5.57
2022-09-22T07:57:05.244Z,5.45
2022-09-22T08:00:32.744Z,6.10
2022-09-22T08:03:57.724Z,5.40
2022-09-22T08:07:20.659Z,4.75
2022-09-22T08:10:43.585Z,5.07
2022-09-22T08:14:08.740Z,4.32
2022-09-22T08:17:31.705Z,5.25
2022-09-22T08:20:55.999Z,4.93
2022-09-22T08:24:21.795Z,4.70
2022-09-22T08:27:44.991Z,4.70
2022-09-22T08:31:13.500Z,5.15
2022-09-22T08:34:36.512Z,4.97
2022-09-22T08:38:00.803Z,5.43
2022-09-22T08:41:35.497Z,3.95
2022-09-22T08:45:01.979Z,4.32
2022-09-22T08:48:46.178Z,4.95
2022-09-22T08:52:17.207Z,4.70
2022-09-22T08:55:44.025Z,4.50
2022-09-22T08:59:12.385Z,4.45
2022-09-22T09:02:43.148Z,4.20
2022-09-22T09:06:11.140Z,4.35
2022-09-22T09:09:45.697Z,4.38
2022-09-22T09:13:36.529Z,4.85
2022-09-22T09:17:03.980Z,5.03
2022-09-22T09:20:35.117Z,4.28
2022-09-22T09:27:51.461Z,4.60
2022-09-22T09:31:22.619Z,3.80
2022-09-22T09:34:46.879Z,4.30
2022-09-22T09:38:15.524Z,4.38
2022-09-22T09:41:39.192Z,4.38
2022-09-22T09:45:03.559Z,4.18
2022-09-22T09:48:35.528Z,4.35
2022-09-22T09:52:01.265Z,4.32
2022-09-22T09:55:27.207Z,4.20
2022-09-22T09:59:14.802Z,4.28
2022-09-22T10:02:48.523Z,4.70
2022-09-22T10:06:14.173Z,3.75
2022-09-22T10:09:37.130Z,4.57
2022-09-22T10:13:31.465Z,3.75
2022-09-22T10:16:54.401Z,4.13
2022-09-22T10:20:22.603Z,3.50
2022-09-22T10:23:48.593Z,3.80
2022-09-22T10:27:21.865Z,3.47
2022-09-22T10:30:46.619Z,3.70
2022-09-22T10:34:30.156Z,3.90
2022-09-22T10:37:54.416Z,3.70
2022-09-22T10:41:21.580Z,4.50
2022-09-22T10:44:48.618Z,4.22
2022-09-22T10:48:23.699Z,3.60
2022-09-22T10:51:59.393Z,3.45
2022-09-22T10:55:30.014Z,3.38
2022-09-22T10:59:38.535Z,4.25
2022-09-22T11:03:31.516Z,3.75
2022-09-22T11:07:28.858Z,3.63
2022-09-22T11:11:15.410Z,3.00
2022-09-22T11:14:53.683Z,3.40
2022-09-22T11:18:34.463Z,3.42
2022-09-22T11:22:13.448Z,3.22
2022-09-22T11:25:51.867Z,4.07
2022-09-22T11:29:47.277Z,3.90
2022-09-22T11:33:30.980Z,3.90
2022-09-22T11:37:22.968Z,3.75
2022-09-22T11:41:16.178Z,3.40
2022-09-22T11:44:51.822Z,2.90
2022-09-22T11:48:28.981Z,3.65
2022-09-22T11:52:06.479Z,3.95
2022-09-22T11:55:37.229Z,3.97
2022-09-22T11:59:05.221Z,3.35
2022-09-22T12:02:35.865Z,3.55
2022-09-22T12:06:03.233Z,3.75
2022-09-22T12:09:37.125Z,3.40
2022-09-22T12:13:00.834Z,4.13
2022-09-22T12:16:31.171Z,4.03
2022-09-22T12:20:00.967Z,4.05
2022-09-22T12:23:39.024Z,3.72
2022-09-22T12:27:12.032Z,3.25
2022-09-22T12:30:35.033Z,2.92
2022-09-22T12:33:58.346Z,4.00
2022-09-22T12:37:29.732Z,3.42
2022-09-22T12:40:58.137Z,3.38
2022-09-22T12:44:24.765Z,2.70
2022-09-22T12:47:51.115Z,3.55
2022-09-22T12:51:31.161Z,3.55
2022-09-22T12:55:18.604Z,3.25
2022-09-22T12:58:45.100Z,3.78
2022-09-22T13:02:29.356Z,3.72
2022-09-22T13:05:53.895Z,3.30
2022-09-22T13:09:22.535Z,2.92
2022-09-22T13:13:22.092Z,3.30
2022-09-22T13:16:46.222Z,4.13
2022-09-22T13:20:21.672Z,3.13
2022-09-22T13:23:55.734Z,3.38
2022-09-22T13:27:18.698Z,4.20
2022-09-22T13:30:44.792Z,3.38
2022-09-22T13:34:21.608Z,3.08
2022-09-22T13:37:44.576Z,3.67
2022-09-22T13:41:13.612Z,3.20
2022-09-22T13:44:41.829Z,2.90
2022-09-22T13:48:11.035Z,3.60
2022-09-22T13:51:34.244Z,3.38
2022-09-22T13:54:59.488Z,2.75
2022-09-22T13:58:41.795Z,3.67
2022-09-22T14:02:09.165Z,3.13
2022-09-22T14:05:35.605Z,3.03
2022-09-22T14:09:00.294Z,2.85
2022-09-22T14:12:23.185Z,2.72
2022-09-22T14:15:49.659Z,3.70
2022-09-22T14:19:16.369Z,3.03
2022-09-22T14:22:43.732Z,4.03
2022-09-22T14:26:23.949Z,4.18
2022-09-22T14:29:50.071Z,3.95
2022-09-22T14:33:18.640Z,4.72
2022-09-22T14:36:46.088Z,4.15
2022-09-22T14:40:16.801Z,4.20
2022-09-22T14:43:42.203Z,4.68
2022-09-22T14:47:10.297Z,4.25
2022-09-22T14:50:40.121Z,3.92
2022-09-22T14:54:05.665Z,3.90
2022-09-22T14:57:30.266Z,4.35
2022-09-22T15:01:15.903Z,3.83
2022-09-22T15:04:41.958Z,3.60
2022-09-22T15:08:05.595Z,4.60
2022-09-22T15:11:47.106Z,3.35
2022-09-22T15:15:21.114Z,4.47
2022-09-22T15:18:43.993Z,3.63
2022-09-22T15:22:06.945Z,4.28
2022-09-22T15:25:30.085Z,3.67
2022-09-22T15:28:55.530Z,4.15
2022-09-22T15:32:19.828Z,4.20
2022-09-22T15:35:44.642Z,4.03
2022-09-22T15:39:09.400Z,4.70
2022-09-22T15:42:32.476Z,4.45
2022-09-22T15:45:59.743Z,4.57
2022-09-22T15:49:26.958Z,4.07
2022-09-22T15:52:50.163Z,4.68
2022-09-22T15:56:18.996Z,4.78
2022-09-22T15:59:42.861Z,4.75
2022-09-22T16:03:14.343Z,4.68
2022-09-22T16:06:39.510Z,4.80
2022-09-22T16:10:02.397Z,5.80
2022-09-22T16:13:27.112Z,4.38
2022-09-22T16:16:51.618Z,4.60
2022-09-22T16:20:17.837Z,4.45
2022-09-22T16:23:42.156Z,4.45
2022-09-22T16:27:07.259Z,4.75
2022-09-22T16:30:30.674Z,5.13
2022-09-22T16:33:54.693Z,5.35
2022-09-22T16:37:17.927Z,5.00
2022-09-22T16:40:42.529Z,4.93
2022-09-22T16:44:06.437Z,4.95
2022-09-22T16:47:29.542Z,5.35
2022-09-22T16:50:55.050Z,5.47
2022-09-22T16:54:19.784Z,6.00
2022-09-22T16:57:44.037Z,5.18
2022-09-22T17:01:07.208Z,5.78
2022-09-22T17:04:32.160Z,5.65
2022-09-22T17:07:55.253Z,5.65
2022-09-22T17:11:19.051Z,5.63
2022-09-22T17:14:47.574Z,5.43
2022-09-22T17:18:10.901Z,5.25
2022-09-22T17:21:36.636Z,6.45
2022-09-22T17:24:59.508Z,6.07
2022-09-22T17:28:25.826Z,5.20
2022-09-22T17:31:56.393Z,5.47
2022-09-22T17:35:19.280Z,4.07
2022-09-22T17:38:42.223Z,5.05
2022-09-22T17:42:06.050Z,5.18
2022-09-22T17:45:28.925Z,5.88
2022-09-22T17:49:11.040Z,5.25
2022-09-22T17:52:51.611Z,5.40
2022-09-22T17:56:14.524Z,5.32
2022-09-22T17:59:38.208Z,5.85
2022-09-22T18:03:02.214Z,6.07
2022-09-22T18:06:26.476Z,6.30
2022-09-22T18:09:51.032Z,4.88
2022-09-22T18:13:13.924Z,5.32
2022-09-22T18:16:37.353Z,5.22
2022-09-22T18:20:01.193Z,5.35
2022-09-22T18:23:28.344Z,6.55
2022-09-22T18:26:53.257Z,6.93
2022-09-22T18:30:19.289Z,6.25
2022-09-22T18:33:43.395Z,6.35
2022-09-22T18:37:06.533Z,5.43
2022-09-22T18:40:31.736Z,4.18
2022-09-22T18:43:55.105Z,5.72
2022-09-22T18:47:19.661Z,5.18
2022-09-22T18:50:42.958Z,5.28
2022-09-22T18:54:08.292Z,4.75
2022-09-22T18:57:32.655Z,5.82
2022-09-22T19:00:55.969Z,5.90
2022-09-22T19:04:21.591Z,4.25
2022-09-22T19:07:47.634Z,5.40
2022-09-22T19:11:11.733Z,5.40
2022-09-22T19:14:38.309Z,5.55
2022-09-22T19:18:01.209Z,5.80
2022-09-22T19:21:25.117Z,5.82
2022-09-22T19:24:48.113Z,4.10
2022-09-22T19:28:12.949Z,4.95
2022-09-22T19:31:39.043Z,5.95
2022-09-22T19:35:02.331Z,4.63
2022-09-22T19:38:25.654Z,5.30
2022-09-22T19:41:49.016Z,5.22
2022-09-22T19:45:12.616Z,4.78
2022-09-22T19:48:38.008Z,5.85
2022-09-22T19:52:01.397Z,4.95
2022-09-22T19:55:24.509Z,5.20
2022-09-22T19:58:47.573Z,4.43
2022-09-22T20:02:13.209Z,4.75
2022-09-22T20:05:39.011Z,4.75
2022-09-22T20:09:03.758Z,4.25
2022-09-22T20:12:26.675Z,4.95
2022-09-22T20:15:49.672Z,4.65
2022-09-22T20:19:12.732Z,5.25
2022-09-22T20:22:40.237Z,5.22
2022-09-22T20:26:03.240Z,4.75
2022-09-22T20:29:26.319Z,5.10
2022-09-22T20:32:51.027Z,5.57
2022-09-22T20:36:14.634Z,4.70
2022-09-22T20:39:39.006Z,4.53
2022-09-22T20:43:03.117Z,5.07
2022-09-22T20:46:26.457Z,4.85
2022-09-22T20:49:51.935Z,5.43
2022-09-22T20:53:15.817Z,5.00
2022-09-22T20:56:42.764Z,4.60
2022-09-22T21:00:06.898Z,4.45
2022-09-22T21:03:30.113Z,4.90
2022-09-22T21:06:53.161Z,4.07
2022-09-22T21:10:33.827Z,4.72
2022-09-22T21:14:03.620Z,4.55
2022-09-22T21:17:27.603Z,4.18
2022-09-22T21:20:50.689Z,5.15
2022-09-22T21:24:14.272Z,5.05
2022-09-22T21:27:38.140Z,4.57
2022-09-22T21:31:05.525Z,4.68
2022-09-22T21:34:29.585Z,4.30
2022-09-22T21:37:56.063Z,5.18
2022-09-22T21:41:21.340Z,4.68
2022-09-22T21:44:46.421Z,4.85
2022-09-22T21:48:11.191Z,4.45
2022-09-22T21:51:36.521Z,3.88
2022-09-22T21:54:59.497Z,4.35
2022-09-22T21:58:22.380Z,4.63
2022-09-22T22:01:45.869Z,4.00
2022-09-22T22:05:10.507Z,3.70
2022-09-22T22:08:37.212Z,5.38
2022-09-22T22:12:00.522Z,4.57
2022-09-22T22:15:23.722Z,4.55
2022-09-22T22:18:46.944Z,4.85
2022-09-22T22:22:11.396Z,4.50
2022-09-22T22:25:36.285Z,5.10
2022-09-22T22:28:59.136Z,3.65
2022-09-22T22:32:22.094Z,4.10
2022-09-22T22:35:50.665Z,4.90
2022-09-22T22:39:15.178Z,4.10
2022-09-22T22:42:38.205Z,4.05
2022-09-22T22:46:01.558Z,4.20
2022-09-22T22:49:24.640Z,4.28
2022-09-22T22:52:47.537Z,4.82
2022-09-22T22:56:16.514Z,3.50
2022-09-22T22:59:39.460Z,3.75
2022-09-22T23:03:02.389Z,4.22
2022-09-22T23:06:27.384Z,3.88
2022-09-22T23:10:05.977Z,3.75
2022-09-22T23:13:30.596Z,3.75
2022-09-22T23:16:53.655Z,4.53
2022-09-22T23:20:16.661Z,3.35
2022-09-22T23:23:40.746Z,4.65
2022-09-22T23:27:03.641Z,3.75
2022-09-22T23:30:28.188Z,3.47
2022-09-22T23:33:52.568Z,3.22
2022-09-22T23:37:15.478Z,4.85
2022-09-22T23:40:38.434Z,4.43
2022-09-22T23:44:02.698Z,4.13
2022-09-22T23:47:28.409Z,3.50
2022-09-22T23:50:52.977Z,3.33
2022-09-22T23:54:18.105Z,3.38
2022-09-22T23:57:41.026Z,3.92
